Time;durP1;ratioP1;P1;durP2;ratioP2;P2;SDS_P1;SDS_P2;PMS_P1;PMS_P2;Temp;Humidity;BMP_temperature;BMP_pressure;BME280_temperature;BME280_humidity;BME280_pressure;Samples;Min_cycle;Max_cycle;Signal;HPM_P1;HPM_P2
2020/12/03 00:01:48;;;;;;;67.47;34.67;;;6.50;99.90;;;;;;4394329;32;20230;-67
2020/12/03 00:04:39;;;;;;;61.97;32.17;;;6.60;99.90;;;;;;4393734;32;20152;-68
2020/12/03 00:07:19;;;;;;;64.00;32.47;;;6.50;99.90;;;;;;4393091;32;20251;-69
2020/12/03 00:09:45;;;;;;;59.43;30.90;;;6.50;99.90;;;;;;4391599;32;20148;-69
2020/12/03 00:12:20;;;;;;;62.03;32.23;;;6.50;99.90;;;;;;4395186;32;20159;-68
2020/12/03 00:14:55;;;;;;;58.07;31.70;;;6.50;99.90;;;;;;4391774;32;20505;-69
2020/12/03 00:17:33;;;;;;;63.00;31.17;;;6.40;99.90;;;;;;4406109;32;20563;-69
2020/12/03 00:20:16;;;;;;;59.83;31.63;;;6.40;99.90;;;;;;4393860;32;20487;-67
2020/12/03 00:22:56;;;;;;;63.03;33.30;;;6.50;99.90;;;;;;4395412;32;20530;-67
2020/12/03 00:25:25;;;;;;;67.13;34.53;;;6.40;99.90;;;;;;4391230;32;20469;-67
2020/12/03 00:27:56;;;;;;;60.37;31.00;;;6.40;99.90;;;;;;4391762;32;20453;-68
2020/12/03 00:30:25;;;;;;;64.30;31.37;;;6.40;99.90;;;;;;4395338;32;20209;-68
2020/12/03 00:32:55;;;;;;;64.07;30.63;;;6.30;99.90;;;;;;4398079;32;20191;-68
2020/12/03 00:35:37;;;;;;;66.53;34.20;;;6.20;99.90;;;;;;4396560;32;20166;-68
2020/12/03 00:38:11;;;;;;;66.13;34.23;;;6.20;99.90;;;;;;4393087;32;20163;-68
2020/12/03 00:40:43;;;;;;;59.70;32.13;;;6.10;99.90;;;;;;4398049;32;20166;-67
2020/12/03 00:43:10;;;;;;;60.33;31.07;;;6.10;99.90;;;;;;4401755;32;20152;-67
2020/12/03 00:45:46;;;;;;;62.30;32.07;;;6.10;99.90;;;;;;4392832;32;20182;-67
2020/12/03 00:48:13;;;;;;;68.60;33.63;;;6.10;99.90;;;;;;4384444;32;20211;-68
2020/12/03 00:50:54;;;;;;;67.60;33.00;;;6.20;99.90;;;;;;4405129;32;20166;-68
2020/12/03 00:53:24;;;;;;;68.27;33.17;;;6.10;99.90;;;;;;4398807;32;20151;-70
2020/12/03 00:55:52;;;;;;;60.40;32.10;;;6.10;99.90;;;;;;4393413;32;20186;-69
2020/12/03 00:58:21;;;;;;;65.00;33.13;;;6.20;99.90;;;;;;4393333;32;20493;-68
2020/12/03 01:00:52;;;;;;;64.47;33.23;;;6.20;99.90;;;;;;4399848;32;20152;-68
2020/12/03 01:03:21;;;;;;;57.77;30.83;;;6.20;99.90;;;;;;4391575;32;20164;-67
2020/12/03 01:05:48;;;;;;;59.07;30.80;;;6.20;99.90;;;;;;4395584;32;20195;-68
2020/12/03 01:08:14;;;;;;;58.83;31.93;;;6.20;99.90;;;;;;4401797;32;20595;-67
2020/12/03 01:10:43;;;;;;;62.27;32.20;;;6.20;99.90;;;;;;4397916;32;20203;-68
2020/12/03 01:13:19;;;;;;;55.47;31.03;;;6.10;99.90;;;;;;4398583;32;20508;-68
2020/12/03 01:15:49;;;;;;;60.80;30.33;;;6.20;99.90;;;;;;4398170;32;20159;-68
2020/12/03 01:18:19;;;;;;;60.23;29.57;;;6.20;99.90;;;;;;4396846;32;20207;-68
2020/12/03 01:20:49;;;;;;;59.47;30.83;;;6.20;99.90;;;;;;4397942;32;20226;-69
2020/12/03 01:23:16;;;;;;;63.20;30.40;;;6.10;99.90;;;;;;4392449;32;20178;-68
2020/12/03 01:25:48;;;;;;;58.00;29.70;;;6.10;99.90;;;;;;4392636;32;20197;-68
2020/12/03 01:28:21;;;;;;;55.10;27.93;;;6.10;99.90;;;;;;4399460;32;20560;-69
2020/12/03 01:30:48;;;;;;;50.53;27.17;;;6.10;99.90;;;;;;4395406;32;20143;-69
2020/12/03 01:33:27;;;;;;;52.83;27.70;;;6.10;99.90;;;;;;4396586;32;20167;-68
2020/12/03 01:35:56;;;;;;;54.73;27.33;;;6.10;99.90;;;;;;4398519;32;20215;-69
2020/12/03 01:38:26;;;;;;;49.57;27.20;;;6.00;99.90;;;;;;4392545;32;20258;-68
2020/12/03 01:41:01;;;;;;;49.83;27.97;;;6.00;99.90;;;;;;4397451;32;20222;-68
2020/12/03 01:43:27;;;;;;;51.10;26.33;;;6.10;99.90;;;;;;4393328;32;20230;-68
2020/12/03 01:45:58;;;;;;;50.33;26.57;;;6.10;99.90;;;;;;4393504;32;20155;-68
2020/12/03 01:48:44;;;;;;;49.03;25.97;;;6.10;99.90;;;;;;4392746;32;20542;-68
2020/12/03 01:51:22;;;;;;;50.70;27.17;;;6.10;99.90;;;;;;4400705;32;20441;-68
2020/12/03 01:53:54;;;;;;;46.13;25.63;;;6.10;99.90;;;;;;4391071;32;20140;-68
2020/12/03 01:56:40;;;;;;;49.37;26.77;;;6.00;99.90;;;;;;4401289;32;20236;-67
2020/12/03 01:59:11;;;;;;;43.43;24.93;;;6.00;99.90;;;;;;4396267;32;20233;-68
2020/12/03 02:02:01;;;;;;;48.03;24.60;;;6.10;99.90;;;;;;4397203;32;20152;-69
2020/12/03 02:04:29;;;;;;;46.87;24.60;;;6.10;99.90;;;;;;4395384;32;20152;-67
2020/12/03 02:07:05;;;;;;;48.33;25.00;;;6.10;99.90;;;;;;4401046;32;20140;-68
2020/12/03 02:09:40;;;;;;;53.60;25.90;;;6.10;99.90;;;;;;4399640;32;20143;-68
2020/12/03 02:12:11;;;;;;;47.37;24.73;;;6.10;99.90;;;;;;4395729;32;20166;-68
2020/12/03 02:14:59;;;;;;;45.67;23.53;;;6.10;99.90;;;;;;4396848;32;20580;-68
2020/12/03 02:17:30;;;;;;;44.13;23.63;;;6.20;99.90;;;;;;4325557;33;20152;-68
2020/12/03 02:20:01;;;;;;;48.30;23.10;;;6.20;99.90;;;;;;4327547;33;20153;-68
2020/12/03 02:22:29;;;;;;;42.83;22.93;;;6.20;99.90;;;;;;4327658;33;20224;-68
2020/12/03 02:24:58;;;;;;;41.40;21.83;;;6.20;99.90;;;;;;4326925;33;20237;-68
2020/12/03 02:27:26;;;;;;;45.57;24.50;;;6.20;99.90;;;;;;4326515;33;20164;-68
2020/12/03 02:30:06;;;;;;;42.87;23.00;;;6.20;99.90;;;;;;4325075;33;20212;-68
2020/12/03 02:32:35;;;;;;;38.43;21.43;;;6.20;99.90;;;;;;4327244;33;20235;-68
2020/12/03 02:35:10;;;;;;;42.60;22.63;;;6.20;99.90;;;;;;4327366;33;20176;-68
2020/12/03 02:37:41;;;;;;;39.07;21.57;;;6.20;99.90;;;;;;4327466;33;20176;-68
2020/12/03 02:40:10;;;;;;;39.60;20.30;;;6.20;99.90;;;;;;4325816;33;20157;-69
2020/12/03 02:42:40;;;;;;;42.27;21.63;;;6.20;99.90;;;;;;4327403;33;20149;-68
2020/12/03 02:45:14;;;;;;;36.17;20.33;;;6.30;99.90;;;;;;4327131;33;20594;-68
2020/12/03 02:47:48;;;;;;;37.10;20.33;;;6.20;99.90;;;;;;4327602;33;20188;-69
2020/12/03 02:50:30;;;;;;;47.03;21.27;;;6.20;99.90;;;;;;4326683;33;20227;-68
2020/12/03 02:52:56;;;;;;;43.80;20.27;;;6.10;99.90;;;;;;4327216;33;20169;-68
2020/12/03 02:55:25;;;;;;;37.80;19.37;;;6.20;99.90;;;;;;4385477;32;20191;-68
2020/12/03 02:57:59;;;;;;;31.73;19.17;;;6.20;99.90;;;;;;4398333;32;20158;-69
2020/12/03 03:00:30;;;;;;;34.20;17.60;;;6.50;99.90;;;;;;4396251;32;20171;-68
2020/12/03 03:02:59;;;;;;;33.27;19.00;;;6.30;99.90;;;;;;4393981;32;20561;-69
2020/12/03 03:05:34;;;;;;;40.27;18.37;;;6.20;99.90;;;;;;4402247;32;20247;-68
2020/12/03 03:08:04;;;;;;;39.30;19.07;;;6.20;99.90;;;;;;4398390;32;20205;-68
2020/12/03 03:10:34;;;;;;;30.90;17.77;;;6.10;99.90;;;;;;4397367;32;20193;-67
2020/12/03 03:13:09;;;;;;;37.40;17.63;;;6.20;99.90;;;;;;4397197;32;20172;-68
2020/12/03 03:15:40;;;;;;;35.13;17.27;;;6.10;99.90;;;;;;4401412;32;20201;-68
2020/12/03 03:18:14;;;;;;;37.73;17.37;;;6.10;99.90;;;;;;4392299;32;20154;-68
2020/12/03 03:20:46;;;;;;;37.67;17.60;;;6.10;99.90;;;;;;4402045;32;20144;-68
2020/12/03 03:23:19;;;;;;;33.77;17.33;;;5.90;99.90;;;;;;4392212;32;20212;-68
2020/12/03 03:25:49;;;;;;;35.57;16.93;;;6.00;99.90;;;;;;4395038;32;20190;-68
2020/12/03 03:28:18;;;;;;;36.00;16.57;;;6.10;99.90;;;;;;4395454;32;20167;-68
2020/12/03 03:30:49;;;;;;;35.30;17.63;;;6.00;99.90;;;;;;4389054;32;20663;-68
2020/12/03 03:33:15;;;;;;;31.93;16.70;;;5.90;99.90;;;;;;4401462;32;20684;-68
2020/12/03 03:35:47;;;;;;;32.13;15.90;;;5.90;99.90;;;;;;4399074;32;20222;-68
2020/12/03 03:38:19;;;;;;;34.83;17.20;;;5.90;99.90;;;;;;4397607;32;20265;-68
2020/12/03 03:40:48;;;;;;;30.97;16.53;;;6.00;99.90;;;;;;4397262;32;20167;-68
2020/12/03 03:43:33;;;;;;;36.17;16.77;;;5.90;99.90;;;;;;4399656;32;20143;-68
2020/12/03 03:46:03;;;;;;;32.23;15.57;;;6.00;99.90;;;;;;4399195;32;20534;-68
2020/12/03 03:48:38;;;;;;;30.33;17.07;;;5.90;99.90;;;;;;4395111;32;20234;-68
2020/12/03 03:51:08;;;;;;;28.13;15.53;;;5.90;99.90;;;;;;4399834;32;20208;-68
2020/12/03 03:53:36;;;;;;;34.03;16.83;;;5.90;99.90;;;;;;4399663;32;20151;-68
2020/12/03 03:56:18;;;;;;;31.13;15.67;;;5.80;99.90;;;;;;4395432;32;20148;-68
2020/12/03 03:58:53;;;;;;;32.37;16.80;;;5.90;99.90;;;;;;4401223;32;20175;-68
2020/12/03 04:01:26;;;;;;;39.07;17.57;;;5.90;99.90;;;;;;4393411;32;20169;-68
2020/12/03 04:03:58;;;;;;;33.97;16.07;;;5.90;99.90;;;;;;4230032;32;5261696;-68
2020/12/03 04:06:31;;;;;;;33.63;17.07;;;5.80;99.90;;;;;;4393461;32;20155;-68
2020/12/03 04:08:58;;;;;;;32.83;16.77;;;5.80;99.90;;;;;;4388156;32;20268;-68
2020/12/03 04:11:31;;;;;;;38.00;17.97;;;5.80;99.90;;;;;;4394277;32;20186;-68
2020/12/03 04:14:00;;;;;;;33.23;17.93;;;5.80;99.90;;;;;;4394813;32;20157;-68
2020/12/03 04:16:27;;;;;;;38.90;18.37;;;5.80;99.90;;;;;;4399399;32;20214;-68
2020/12/03 04:18:58;;;;;;;33.10;16.90;;;5.80;99.90;;;;;;4390118;32;20179;-68
2020/12/03 04:21:25;;;;;;;43.10;18.80;;;5.80;99.90;;;;;;4403967;32;20629;-68
2020/12/03 04:23:54;;;;;;;36.40;17.53;;;5.80;99.90;;;;;;4400561;32;20153;-68
2020/12/03 04:26:25;;;;;;;34.63;16.50;;;5.80;99.90;;;;;;4398880;32;20164;-68
2020/12/03 04:28:54;;;;;;;38.77;17.70;;;5.90;99.90;;;;;;4404718;32;20203;-68
2020/12/03 04:31:25;;;;;;;31.93;17.40;;;5.90;99.90;;;;;;4398091;32;20524;-68
2020/12/03 04:36:41;;;;;;;31.90;18.40;;;5.90;99.90;;;;;;4360057;32;20620;-68
2020/12/03 04:39:14;;;;;;;42.30;19.37;;;5.90;99.90;;;;;;4359926;33;20195;-68
2020/12/03 04:41:46;;;;;;;35.57;19.53;;;5.90;99.90;;;;;;4345420;32;20180;-68
2020/12/03 04:44:20;;;;;;;36.60;17.43;;;6.00;99.90;;;;;;4349114;33;20169;-68
2020/12/03 04:49:55;;;;;;;38.40;19.33;;;5.90;99.90;;;;;;4346850;33;20815;-68
2020/12/03 04:52:47;;;;;;;33.23;19.03;;;5.90;99.90;;;;;;4349614;32;20180;-68
2020/12/03 04:55:35;;;;;;;38.67;20.17;;;5.90;99.90;;;;;;4345775;32;20196;-68
2020/12/03 04:58:16;;;;;;;45.40;22.07;;;5.90;99.90;;;;;;4353144;33;20297;-68
2020/12/03 05:01:00;;;;;;;37.13;20.03;;;5.90;99.90;;;;;;4351645;32;20194;-68
2020/12/03 05:03:59;;;;;;;42.60;20.80;;;5.90;99.90;;;;;;4356829;33;20227;-68
2020/12/03 05:06:39;;;;;;;38.90;18.47;;;5.90;99.90;;;;;;4313980;33;20214;-68
2020/12/03 05:09:22;;;;;;;43.60;20.80;;;5.90;99.90;;;;;;4314185;33;20259;-68
2020/12/03 05:11:55;;;;;;;44.60;23.37;;;5.90;99.90;;;;;;4313754;33;20209;-68
2020/12/03 05:14:45;;;;;;;37.77;21.23;;;6.00;99.90;;;;;;4339942;33;20232;-68
2020/12/03 05:17:42;;;;;;;44.97;21.93;;;5.90;99.90;;;;;;4351779;33;20172;-68
2020/12/03 05:20:27;;;;;;;46.00;22.43;;;6.00;99.90;;;;;;4351920;32;20165;-68
2020/12/03 05:23:09;;;;;;;42.17;23.67;;;6.10;99.90;;;;;;4350699;33;20252;-68
2020/12/03 05:25:42;;;;;;;50.33;24.80;;;6.10;99.90;;;;;;4352100;33;20650;-68
2020/12/03 05:28:34;;;;;;;40.50;23.57;;;6.10;99.90;;;;;;4355593;32;20477;-68
2020/12/03 05:31:13;;;;;;;44.10;24.70;;;6.00;99.90;;;;;;4346694;32;20188;-68
2020/12/03 05:33:46;;;;;;;42.33;25.93;;;6.00;99.90;;;;;;4348332;32;20172;-68
2020/12/03 05:36:29;;;;;;;43.93;25.33;;;6.10;99.90;;;;;;4359339;33;20664;-67
2020/12/03 05:39:02;;;;;;;44.53;27.13;;;6.10;99.90;;;;;;4359153;32;20169;-68
2020/12/03 05:41:34;;;;;;;45.37;27.20;;;6.20;99.90;;;;;;4357494;33;20160;-68
2020/12/03 05:44:08;;;;;;;47.87;28.10;;;6.20;99.90;;;;;;4387661;32;20171;-68
2020/12/03 05:46:43;;;;;;;49.50;28.13;;;6.20;99.90;;;;;;4404838;32;20155;-68
2020/12/03 05:49:22;;;;;;;51.03;28.37;;;6.20;99.90;;;;;;4406114;32;20504;-67
2020/12/03 05:52:13;;;;;;;46.97;27.33;;;6.00;99.90;;;;;;4399773;32;20204;-68
2020/12/03 05:55:02;;;;;;;56.27;28.90;;;6.10;99.90;;;;;;4391259;32;20590;-68
2020/12/03 05:57:36;;;;;;;52.47;30.27;;;6.10;99.90;;;;;;4405779;32;20508;-68
2020/12/03 06:00:31;;;;;;;54.27;30.90;;;6.10;99.90;;;;;;4383902;32;20196;-68
2020/12/03 06:03:27;;;;;;;57.40;33.73;;;6.00;99.90;;;;;;4397706;32;20657;-67
2020/12/03 06:06:23;;;;;;;61.30;34.33;;;6.00;99.90;;;;;;4327956;33;20308;-67
2020/12/03 06:09:07;;;;;;;59.43;34.50;;;6.00;99.90;;;;;;4327818;33;20467;-68
2020/12/03 06:12:02;;;;;;;63.77;35.90;;;6.00;99.90;;;;;;4325889;33;20208;-68
2020/12/03 06:15:04;;;;;;;58.90;35.87;;;5.90;99.90;;;;;;4327593;33;20169;-67
2020/12/03 06:17:54;;;;;;;60.90;34.93;;;5.90;99.90;;;;;;4327287;33;20172;-67
2020/12/03 06:20:45;;;;;;;62.80;35.00;;;6.00;99.90;;;;;;4327051;33;20168;-67
2020/12/03 06:23:51;;;;;;;62.77;36.23;;;6.00;99.90;;;;;;4325817;33;20157;-67
2020/12/03 06:26:44;;;;;;;71.07;37.43;;;6.00;99.90;;;;;;4294789;33;20188;-67
2020/12/03 06:29:36;;;;;;;74.17;38.20;;;6.00;99.90;;;;;;4242995;33;20231;-67
2020/12/03 06:32:25;;;;;;;71.17;36.83;;;6.00;99.90;;;;;;4242414;33;20183;-66
2020/12/03 06:35:02;;;;;;;65.13;36.60;;;6.00;99.90;;;;;;4246659;33;20186;-67
2020/12/03 06:37:41;;;;;;;75.73;40.13;;;6.00;99.90;;;;;;4239027;33;20183;-66
2020/12/03 06:40:23;;;;;;;67.57;39.43;;;6.00;99.90;;;;;;4246194;33;20190;-67
2020/12/03 06:43:13;;;;;;;74.33;39.37;;;6.10;99.90;;;;;;4280025;33;20204;-66
2020/12/03 06:46:05;;;;;;;65.37;37.43;;;6.10;99.90;;;;;;4320214;33;20162;-67
2020/12/03 06:49:21;;;;;;;69.83;37.40;;;6.10;99.90;;;;;;4315168;33;20192;-67
2020/12/03 06:52:24;;;;;;;72.43;38.63;;;6.20;99.90;;;;;;4301251;33;20244;-67
2020/12/03 06:55:32;;;;;;;70.10;38.70;;;6.10;99.90;;;;;;4257088;33;20264;-67
2020/12/03 06:58:23;;;;;;;70.63;39.60;;;6.20;99.90;;;;;;4216094;34;20214;-67
2020/12/03 07:01:33;;;;;;;81.93;41.43;;;6.10;99.90;;;;;;4218228;34;20194;-67
2020/12/03 07:04:44;;;;;;;80.87;42.70;;;6.20;99.90;;;;;;4222337;33;20275;-68
2020/12/03 07:07:53;;;;;;;72.33;41.80;;;6.30;99.90;;;;;;4281866;33;20173;-67
2020/12/03 07:10:54;;;;;;;81.57;43.60;;;6.30;99.90;;;;;;4239323;33;20235;-67
2020/12/03 07:14:01;;;;;;;81.40;42.80;;;6.40;99.90;;;;;;4240873;33;20171;-68
2020/12/03 07:17:12;;;;;;;75.70;41.20;;;6.40;99.90;;;;;;4240266;33;20174;-68
2020/12/03 07:20:35;;;;;;;84.10;42.07;;;6.40;99.90;;;;;;4240846;33;20152;-67
2020/12/03 07:23:09;;;;;;;78.57;40.03;;;6.50;99.90;;;;;;4219304;34;20202;-68
2020/12/03 07:25:39;;;;;;;82.87;43.57;;;6.40;99.90;;;;;;4215381;34;20171;-67
2020/12/03 07:28:21;;;;;;;79.97;41.50;;;6.30;99.90;;;;;;4205616;34;20319;-68
2020/12/03 07:30:55;;;;;;;81.27;43.53;;;6.40;99.90;;;;;;4215463;33;20272;-67
2020/12/03 07:34:00;;;;;;;79.33;41.43;;;6.40;99.90;;;;;;4238325;33;20179;-68
2020/12/03 07:36:40;;;;;;;80.13;40.37;;;6.40;99.90;;;;;;4283273;33;20166;-67
2020/12/03 07:42:31;;;;;;;71.07;39.60;;;6.50;99.90;;;;;;4281736;33;20182;-67
2020/12/03 07:45:25;;;;;;;76.40;39.83;;;6.50;99.90;;;;;;4283167;33;20575;-66
2020/12/03 07:48:23;;;;;;;75.27;39.80;;;6.40;99.90;;;;;;4326097;33;20169;-66
2020/12/03 07:51:32;;;;;;;69.30;37.33;;;6.40;99.90;;;;;;4338220;33;20203;-66
2020/12/03 07:54:25;;;;;;;81.23;38.33;;;6.50;99.90;;;;;;4298439;33;20230;-66
2020/12/03 07:56:59;;;;;;;73.03;37.67;;;6.50;99.90;;;;;;4300441;33;20237;-67
2020/12/03 07:59:47;;;;;;;74.13;38.37;;;6.50;99.90;;;;;;4329610;33;20165;-65
2020/12/03 08:02:53;;;;;;;72.73;39.53;;;6.50;99.90;;;;;;4358327;33;20246;-67
2020/12/03 08:05:49;;;;;;;79.77;38.87;;;6.50;99.90;;;;;;4357846;33;20164;-66
2020/12/03 08:08:38;;;;;;;68.47;37.87;;;6.50;99.90;;;;;;4358601;32;20215;-66
2020/12/03 08:11:51;;;;;;;76.73;38.80;;;6.60;99.90;;;;;;4352844;33;20652;-67
2020/12/03 08:14:54;;;;;;;65.20;36.30;;;6.60;99.90;;;;;;4347324;33;20160;-67
2020/12/03 08:17:54;;;;;;;63.53;35.07;;;6.50;99.90;;;;;;4357867;32;20504;-68
2020/12/03 08:20:48;;;;;;;66.00;36.93;;;6.50;99.90;;;;;;4346753;33;20655;-69
2020/12/03 08:23:29;;;;;;;73.43;37.57;;;6.50;99.90;;;;;;4359268;33;20188;-67
2020/12/03 08:26:00;;;;;;;65.77;35.07;;;6.50;99.90;;;;;;4359357;33;20183;-69
2020/12/03 08:28:50;;;;;;;64.70;35.17;;;6.50;99.90;;;;;;4358987;33;20566;-65
2020/12/03 08:31:24;;;;;;;66.47;38.13;;;6.50;99.90;;;;;;4381110;32;20161;-67
2020/12/03 08:33:57;;;;;;;66.27;36.83;;;6.50;99.90;;;;;;4393138;32;20624;-66
2020/12/03 08:36:26;;;;;;;65.07;36.53;;;6.50;99.90;;;;;;4401139;32;20187;-70
2020/12/03 08:38:59;;;;;;;68.63;37.97;;;6.50;99.90;;;;;;4404468;32;20174;-67
2020/12/03 08:41:27;;;;;;;65.87;35.93;;;6.60;99.90;;;;;;4396588;32;20178;-64
2020/12/03 08:44:03;;;;;;;64.60;36.50;;;6.60;99.90;;;;;;4394685;32;20545;-65
2020/12/03 08:46:38;;;;;;;67.53;37.00;;;6.50;99.90;;;;;;4396049;32;20178;-69
2020/12/03 08:49:19;;;;;;;55.50;33.13;;;6.50;99.90;;;;;;4406191;32;20152;-70
2020/12/03 08:51:57;;;;;;;59.10;34.03;;;6.50;99.90;;;;;;4400602;32;20152;-68
2020/12/03 08:54:29;;;;;;;62.10;34.63;;;6.60;99.90;;;;;;4391930;32;20628;-66
2020/12/03 08:56:58;;;;;;;55.73;34.10;;;6.50;99.90;;;;;;4396456;32;20152;-66
2020/12/03 08:59:32;;;;;;;58.40;33.03;;;6.50;99.90;;;;;;4405430;32;20494;-69
2020/12/03 09:02:11;;;;;;;56.03;31.50;;;6.40;99.90;;;;;;4398782;32;20228;-66
2020/12/03 09:04:51;;;;;;;54.57;32.27;;;6.50;99.90;;;;;;4397680;32;20172;-70
2020/12/03 09:07:31;;;;;;;53.83;30.70;;;6.50;99.90;;;;;;4400311;32;20201;-69
2020/12/03 09:10:08;;;;;;;53.33;32.50;;;6.50;99.90;;;;;;4400318;32;20627;-68
2020/12/03 09:12:36;;;;;;;51.27;31.20;;;6.50;99.90;;;;;;4395910;32;20209;-67
2020/12/03 09:15:08;;;;;;;51.47;32.47;;;6.50;99.90;;;;;;4393869;32;20222;-68
2020/12/03 09:17:45;;;;;;;57.77;34.30;;;6.40;99.90;;;;;;4391075;32;20466;-66
2020/12/03 09:20:16;;;;;;;51.80;30.70;;;6.40;99.90;;;;;;4392951;32;20214;-67
2020/12/03 09:22:45;;;;;;;50.87;29.97;;;6.40;99.90;;;;;;4392811;32;20187;-66
2020/12/03 09:25:20;;;;;;;45.97;29.60;;;6.40;99.90;;;;;;4391793;32;20211;-65
2020/12/03 09:28:09;;;;;;;49.13;29.40;;;6.40;99.90;;;;;;4391452;32;20155;-68
2020/12/03 09:30:46;;;;;;;41.17;26.57;;;6.40;99.90;;;;;;4402446;32;20649;-66
2020/12/03 09:36:13;;;;;;;37.03;24.07;;;6.40;99.90;;;;;;4374184;32;20196;-65
2020/12/03 09:38:51;;;;;;;35.27;23.77;;;6.50;99.90;;;;;;4362790;32;20167;-68
2020/12/03 09:41:26;;;;;;;36.10;22.80;;;6.60;99.90;;;;;;4367726;32;20160;-68
2020/12/03 09:44:04;;;;;;;34.23;21.90;;;6.60;99.90;;;;;;4373650;32;20179;-65
2020/12/03 09:46:45;;;;;;;34.43;22.20;;;6.60;99.90;;;;;;4369396;32;20183;-67
2020/12/03 09:52:12;;;;;;;38.10;24.97;;;6.60;99.90;;;;;;4372595;32;20267;-69
2020/12/03 09:54:46;;;;;;;40.50;27.27;;;6.60;99.90;;;;;;4374229;32;20160;-68
2020/12/03 09:57:13;;;;;;;37.03;25.80;;;6.50;99.90;;;;;;4359081;33;20185;-66
2020/12/03 09:59:50;;;;;;;42.00;26.93;;;6.60;99.90;;;;;;4359162;33;20219;-69
2020/12/03 10:02:47;;;;;;;43.93;28.20;;;6.60;99.90;;;;;;4359432;32;20239;-68
2020/12/03 10:05:40;;;;;;;40.37;26.43;;;6.40;99.90;;;;;;4370542;32;20192;-68
2020/12/03 10:09:00;;;;;;;39.47;26.00;;;6.60;99.90;;;;;;4390611;32;20168;-65
2020/12/03 10:15:19;;;;;;;41.93;27.47;;;6.60;99.90;;;;;;4389546;32;20528;-66
2020/12/03 10:18:15;;;;;;;42.27;26.27;;;6.50;99.90;;;;;;4322446;33;20250;-68
2020/12/03 10:20:44;;;;;;;40.47;25.00;;;6.60;99.90;;;;;;4271123;33;20580;-69
2020/12/03 10:26:42;;;;;;;38.13;25.17;;;6.60;99.90;;;;;;4271075;33;20220;-67
2020/12/03 10:29:36;;;;;;;40.67;25.80;;;6.60;99.90;;;;;;4270976;33;20222;-67
2020/12/03 10:32:11;;;;;;;41.93;26.53;;;6.60;99.90;;;;;;4271035;33;20183;-67
2020/12/03 10:34:39;;;;;;;41.77;25.97;;;6.60;99.90;;;;;;4272345;33;20166;-67
2020/12/03 10:37:23;;;;;;;41.90;25.77;;;6.60;99.90;;;;;;4270557;33;20163;-66
2020/12/03 10:39:52;;;;;;;44.30;24.73;;;6.70;99.90;;;;;;4270884;33;20159;-66
2020/12/03 10:42:27;;;;;;;37.73;23.40;;;6.70;99.90;;;;;;4269554;33;20507;-68
2020/12/03 10:45:02;;;;;;;38.57;24.43;;;6.80;99.90;;;;;;4272282;33;20229;-68
2020/12/03 10:47:47;;;;;;;41.13;25.57;;;6.70;99.90;;;;;;4270983;33;20174;-68
2020/12/03 10:50:29;;;;;;;36.93;23.20;;;6.80;99.90;;;;;;4270751;33;20170;-68
2020/12/03 10:53:06;;;;;;;37.83;24.67;;;6.80;99.90;;;;;;4270735;33;20177;-69
2020/12/03 10:55:59;;;;;;;39.50;24.07;;;6.80;99.90;;;;;;4330464;33;20565;-68
2020/12/03 10:58:40;;;;;;;30.23;22.40;;;6.80;99.90;;;;;;4394550;32;20201;-68
2020/12/03 11:01:07;;;;;;;37.10;23.97;;;6.90;99.90;;;;;;4399813;32;20148;-67
2020/12/03 11:03:48;;;;;;;34.60;23.37;;;6.70;99.90;;;;;;4397466;32;20225;-68
2020/12/03 11:06:37;;;;;;;36.10;22.57;;;6.70;99.90;;;;;;4404904;32;20186;-65
2020/12/03 11:09:09;;;;;;;38.53;22.97;;;6.70;99.90;;;;;;4395310;32;20214;-67
2020/12/03 11:11:50;;;;;;;31.03;21.37;;;6.70;99.90;;;;;;4400149;32;20584;-68
2020/12/03 11:14:17;;;;;;;35.93;22.33;;;6.70;99.90;;;;;;4394301;32;20167;-69
2020/12/03 11:16:52;;;;;;;33.27;22.00;;;6.80;99.90;;;;;;4394846;32;20194;-66
2020/12/03 11:19:32;;;;;;;35.23;23.47;;;6.70;99.90;;;;;;4393459;32;20179;-65
2020/12/03 11:22:34;;;;;;;33.37;22.60;;;6.70;99.90;;;;;;4394993;32;20163;-69
2020/12/03 11:25:13;;;;;;;33.97;22.00;;;6.80;99.90;;;;;;4393474;32;20174;-66
2020/12/03 11:27:42;;;;;;;33.67;22.73;;;6.70;99.90;;;;;;4396008;32;20175;-69
2020/12/03 11:30:23;;;;;;;30.90;21.83;;;6.70;99.90;;;;;;4393865;32;20522;-67
2020/12/03 11:33:04;;;;;;;32.70;22.00;;;6.80;99.90;;;;;;4392339;32;20190;-66
2020/12/03 11:35:32;;;;;;;32.13;22.47;;;6.70;99.90;;;;;;4391625;32;20178;-69
2020/12/03 11:38:17;;;;;;;40.00;25.40;;;6.80;99.90;;;;;;4393698;32;20203;-65
2020/12/03 11:40:54;;;;;;;35.77;23.30;;;6.70;99.90;;;;;;4394645;32;20195;-67
2020/12/03 11:43:39;;;;;;;39.30;25.50;;;6.80;99.90;;;;;;4398214;32;20178;-66
2020/12/03 11:49:32;;;;;;;40.37;24.67;;;6.80;99.90;;;;;;4403012;32;20508;-68
2020/12/03 11:52:13;;;;;;;38.53;24.63;;;6.80;99.90;;;;;;4389743;32;20298;-68
2020/12/03 11:54:42;;;;;;;41.03;24.50;;;6.70;99.90;;;;;;4401043;32;20218;-68
2020/12/03 11:57:13;;;;;;;40.03;25.73;;;6.60;99.90;;;;;;4396037;32;20163;-68
2020/12/03 11:59:49;;;;;;;39.10;25.17;;;6.70;99.90;;;;;;4399419;32;20194;-65
2020/12/03 12:02:20;;;;;;;39.30;24.87;;;6.70;99.90;;;;;;4395438;32;20536;-65
2020/12/03 12:05:04;;;;;;;39.63;25.17;;;6.60;99.90;;;;;;4391863;32;20144;-67
2020/12/03 12:07:49;;;;;;;35.03;22.70;;;6.60;99.90;;;;;;4389475;32;20194;-66
2020/12/03 12:10:20;;;;;;;38.47;24.20;;;6.70;99.90;;;;;;4394321;32;20152;-66
2020/12/03 12:12:52;;;;;;;36.60;23.13;;;6.60;99.90;;;;;;4389697;32;20227;-66
2020/12/03 12:18:13;;;;;;;40.77;23.13;;;6.50;99.90;;;;;;4370905;32;20286;-69
2020/12/03 12:20:42;;;;;;;40.10;23.53;;;6.50;99.90;;;;;;4362717;32;20640;-68
2020/12/03 12:23:11;;;;;;;37.40;23.80;;;6.50;99.90;;;;;;4366976;32;20229;-69
2020/12/03 12:25:42;;;;;;;43.23;23.93;;;6.60;99.90;;;;;;4360498;32;20148;-67
2020/12/03 12:28:11;;;;;;;35.90;23.83;;;6.60;99.90;;;;;;4362992;32;20235;-68
2020/12/03 12:30:38;;;;;;;38.83;24.23;;;6.60;99.90;;;;;;4364830;32;20210;-66
2020/12/03 12:33:13;;;;;;;36.17;23.40;;;6.50;99.90;;;;;;4366645;32;20215;-65
2020/12/03 12:35:44;;;;;;;37.10;23.80;;;6.50;99.90;;;;;;4348146;32;20152;-66
2020/12/03 12:38:19;;;;;;;44.70;23.27;;;6.50;99.90;;;;;;4364627;32;20627;-67
2020/12/03 12:40:50;;;;;;;35.73;24.07;;;6.50;99.90;;;;;;4362253;32;20167;-66
2020/12/03 12:43:19;;;;;;;34.20;22.53;;;6.50;99.90;;;;;;4363500;32;20195;-64
2020/12/03 12:45:46;;;;;;;39.63;22.47;;;6.50;99.90;;;;;;4364335;32;20628;-68
2020/12/03 12:48:15;;;;;;;36.53;23.50;;;6.50;99.90;;;;;;4372630;32;20163;-65
2020/12/03 12:50:51;;;;;;;31.30;20.50;;;6.40;99.90;;;;;;4397139;32;20164;-69
2020/12/03 12:53:18;;;;;;;37.00;23.00;;;6.30;99.90;;;;;;4400686;32;20151;-67
2020/12/03 12:56:02;;;;;;;32.50;20.70;;;6.30;99.90;;;;;;4400440;32;20187;-68
2020/12/03 12:58:30;;;;;;;33.17;21.43;;;6.30;99.90;;;;;;4395743;32;20491;-65
2020/12/03 13:01:07;;;;;;;30.93;20.40;;;6.50;99.90;;;;;;4398162;32;20472;-69
2020/12/03 13:03:35;;;;;;;28.67;20.83;;;6.40;99.90;;;;;;4399056;32;20144;-67
2020/12/03 13:06:10;;;;;;;31.87;20.17;;;6.40;99.90;;;;;;4405817;32;20483;-68
2020/12/03 13:08:42;;;;;;;26.40;18.00;;;6.40;99.90;;;;;;4400421;32;20189;-65
2020/12/03 13:11:13;;;;;;;25.40;18.30;;;6.40;99.90;;;;;;4396729;32;20152;-66
2020/12/03 13:13:39;;;;;;;24.63;18.53;;;6.40;99.90;;;;;;4394995;32;20183;-67
2020/12/03 13:16:11;;;;;;;29.97;19.63;;;6.30;99.90;;;;;;4396038;32;20636;-66
2020/12/03 13:18:49;;;;;;;26.90;18.60;;;6.40;99.90;;;;;;4390873;32;20136;-66
2020/12/03 13:21:32;;;;;;;25.27;19.07;;;6.40;99.90;;;;;;4396801;32;20215;-66
2020/12/03 13:24:15;;;;;;;31.17;19.80;;;6.40;99.90;;;;;;4395177;32;20144;-67
2020/12/03 13:26:44;;;;;;;29.47;19.03;;;6.30;99.90;;;;;;4394336;32;20496;-67
2020/12/03 13:29:10;;;;;;;25.70;18.53;;;6.30;99.90;;;;;;4400853;32;20170;-67
2020/12/03 13:31:49;;;;;;;21.87;18.37;;;6.30;99.90;;;;;;4394206;32;20221;-67
2020/12/03 13:34:19;;;;;;;24.00;17.47;;;6.30;99.90;;;;;;4395680;32;20170;-65
2020/12/03 13:36:51;;;;;;;25.03;19.47;;;6.20;99.90;;;;;;4395973;32;20251;-66
2020/12/03 13:39:19;;;;;;;24.47;18.63;;;6.40;99.90;;;;;;4399371;32;20569;-67
2020/12/03 13:41:48;;;;;;;24.03;17.23;;;6.30;99.90;;;;;;4402142;32;20164;-66
2020/12/03 13:44:15;;;;;;;23.50;16.70;;;6.40;99.90;;;;;;4407127;32;20178;-65
2020/12/03 13:46:47;;;;;;;22.87;17.33;;;6.30;99.90;;;;;;4395234;32;20156;-64
2020/12/03 13:49:15;;;;;;;19.87;15.43;;;6.30;99.90;;;;;;4393590;32;20152;-65
2020/12/03 13:51:48;;;;;;;18.47;14.70;;;6.20;99.90;;;;;;4395713;32;20190;-66
2020/12/03 13:54:14;;;;;;;21.77;15.27;;;6.20;99.90;;;;;;4392666;32;20949;-65
2020/12/03 13:56:43;;;;;;;21.30;14.53;;;6.20;99.90;;;;;;4394494;32;20596;-65
2020/12/03 13:59:15;;;;;;;22.53;15.70;;;6.20;99.90;;;;;;4395203;32;20151;-65